Westrac — WTH4325 — position and weather

sailwx.info

Track history (hours):
 
Tides and Currents Weather Stations Pressure Air Temp Water Temp Dewpoint Dewpoint Depression Visibility Wind Speed Wind Dir Waves Ship Positions

Westrac

Owner: WESTERN TOWBOAT CO, SEATTLE, WA. More information available from US FCC via Universal Licensing System and Coast Guard Vessel Documentation Center.

Last reported at 2016-Aug-29 19:21 UTC. Time now 2016-Aug-30 01:20 UTC.
Position N 47°34' W 122°21'.

Length 23 m; draft 5 m.

Type: Tug. MMSI: 366993010.

Date/timePositionNaut miles runAvg speedWind from/ knotsBaromVisibWave heightAir tempDewpointWater temp
2016-Aug-29 19:21N 47°34' W 122°21'0 0.0
2016-Aug-29 18:33N 47°34' W 122°21'0 0.0
2016-Aug-29 17:33N 47°34' W 122°21'0 0.0
2016-Aug-29 16:33N 47°34' W 122°21'2 1.8
2016-Aug-29 15:33N 47°32' W 122°20'3 3.3
2016-Aug-29 14:33N 47°36' W 122°22'1 0.1
2016-Aug-28 23:32N 47°34' W 122°21'1 1.3
2016-Aug-28 22:33N 47°35' W 122°21'0 0.1
2016-Aug-28 21:33N 47°35' W 122°21'0 0.0
2016-Aug-28 20:33N 47°35' W 122°21'0 0.0
2016-Aug-28 19:33N 47°35' W 122°21'3 3.1
2016-Aug-28 18:33N 47°32' W 122°20'3 3.5
2016-Aug-28 17:33N 47°36' W 122°22'2 0.1
2016-Aug-27 22:33N 47°33' W 122°21'3 3.1
2016-Aug-27 21:33N 47°36' W 122°23'2 0.1
2016-Aug-27 03:26N 47°34' W 122°21'1 1.1
2016-Aug-27 02:33N 47°33' W 122°20'1 0.8
2016-Aug-27 01:33N 47°34' W 122°21'1 1.4
2016-Aug-27 00:34N 47°33' W 122°20'4 3.6
2016-Aug-26 23:33N 47°36' W 122°21'1 0.7
2016-Aug-26 22:34N 47°36' W 122°21'1 0.5
2016-Aug-26 21:33N 47°35' W 122°21'1 0.7
2016-Aug-26 20:33N 47°34' W 122°21'1 0.6
2016-Aug-26 19:34N 47°35' W 122°21'1 0.0
2016-Aug-25 23:12N 47°34' W 122°21'0 0.3
2016-Aug-25 22:33N 47°34' W 122°21'1 0.6
2016-Aug-25 21:33N 47°34' W 122°21'0 0.4
2016-Aug-25 20:33N 47°35' W 122°22'2 2.0
2016-Aug-25 19:33N 47°33' W 122°20'2 2.3
2016-Aug-25 18:34N 47°35' W 122°21'2 1.9
2016-Aug-25 17:33N 47°33' W 122°21'2 2.3
2016-Aug-25 16:33N 47°36' W 122°21'2 2.2
2016-Aug-25 15:33N 47°33' W 122°21'1 1.4
2016-Aug-25 14:33N 47°35' W 122°22'0 0.1
2016-Aug-25 13:33N 47°35' W 122°22'1 0.1
2016-Aug-25 06:25N 47°34' W 122°21'0 0.0
2016-Aug-25 04:33N 47°34' W 122°21'0 0.0
2016-Aug-25 03:33N 47°34' W 122°21'0 0.0
2016-Aug-25 02:34N 47°34' W 122°21'1 1.0
2016-Aug-25 01:33N 47°33' W 122°21'0 0.1
2016-Aug-25 00:33N 47°33' W 122°21'1 0.9
2016-Aug-24 23:34N 47°34' W 122°21'0 0.0
2016-Aug-24 22:34N 47°34' W 122°21'0 0.0
2016-Aug-24 21:34N 47°34' W 122°21'1 0.7
2016-Aug-24 20:33N 47°35' W 122°22'1 1.4
2016-Aug-24 19:33N 47°33' W 122°21'1 0.8
2016-Aug-24 18:34N 47°34' W 122°21'1 0.2
2016-Aug-24 15:33N 47°34' W 122°21'1 1.0
2016-Aug-24 14:33N 47°34' W 122°21'1 0.5
2016-Aug-24 13:33N 47°34' W 122°21'0 0.0
2016-Aug-24 02:33N 47°34' W 122°21'2 1.6
2016-Aug-24 01:34N 47°36' W 122°22'0 0.4
2016-Aug-24 00:33N 47°35' W 122°22'0 0.3
2016-Aug-23 23:33N 47°35' W 122°22'0 0.0
2016-Aug-23 22:33N 47°35' W 122°22'1 0.9
2016-Aug-23 21:34N 47°34' W 122°21'0 0.2
2016-Aug-23 20:33N 47°34' W 122°21'1 1.1
2016-Aug-23 19:33N 47°35' W 122°22'1 1.4
2016-Aug-23 18:33N 47°34' W 122°21'0 0.0
2016-Aug-23 17:34N 47°34' W 122°21'0 0.0
2016-Aug-23 04:33N 47°34' W 122°21'0 0.0
2016-Aug-22 23:09N 47°34' W 122°21'1 2.0
2016-Aug-22 22:33N 47°35' W 122°21'1 0.2
2016-Aug-22 14:33N 47°34' W 122°21'0 0.3
2016-Aug-22 13:33N 47°34' W 122°21'0 0.0
2016-Aug-22 01:13N 47°34' W 122°21'0 0.6
2016-Aug-22 00:33N 47°34' W 122°21'0 0.5
2016-Aug-21 23:34N 47°34' W 122°21'0 0.2
2016-Aug-21 22:34N 47°34' W 122°21'0 0.0
2016-Aug-21 21:34N 47°34' W 122°21'1 0.8
2016-Aug-21 20:34N 47°35' W 122°22'1 0.8
2016-Aug-21 19:33N 47°35' W 122°22'2 2.4
2016-Aug-21 18:34N 47°33' W 122°21'0 0.0
2016-Aug-21 07:33N 47°33' W 122°21'1 0.1
2016-Aug-20 20:21N 47°34' W 122°21'1 1.0
2016-Aug-20 19:33N 47°33' W 122°21'1 0.8
2016-Aug-20 18:33N 47°34' W 122°21'0 0.0
2016-Aug-20 17:33N 47°34' W 122°21'2 1.8
2016-Aug-20 16:33N 47°32' W 122°20'1 0.5
2016-Aug-20 15:33N 47°33' W 122°20'0 0.4
2016-Aug-20 14:33N 47°33' W 122°21'1 0.1
2016-Aug-20 02:05N 47°34' W 122°21'0 0.4
2016-Aug-20 01:33N 47°34' W 122°21'2 2.1
2016-Aug-20 00:33N 47°36' W 122°23'2 2.2
2016-Aug-19 23:33N 47°34' W 122°21'0 0.0
2016-Aug-19 22:33N 47°34' W 122°21'  
Track history (hours):
 
Tides and Currents Weather Stations Pressure Air Temp Water Temp Dewpoint Dewpoint Depression Visibility Wind Speed Wind Dir Waves Ship Positions

Westrac

Owner: WESTERN TOWBOAT CO, SEATTLE, WA. More information available from US FCC via Universal Licensing System and Coast Guard Vessel Documentation Center.

Last reported at 2016-Aug-29 19:21 UTC. Time now 2016-Aug-30 01:20 UTC.
Position N 47°34' W 122°21'.

Length 23 m; draft 5 m.

Type: Tug. MMSI: 366993010.

Date/timePositionNaut miles runAvg speedWind from/ knotsBaromVisibWave heightAir tempDewpointWater temp
2016-Aug-29 19:21N 47°34' W 122°21'0 0.0
2016-Aug-29 18:33N 47°34' W 122°21'0 0.0
2016-Aug-29 17:33N 47°34' W 122°21'0 0.0
2016-Aug-29 16:33N 47°34' W 122°21'2 1.8
2016-Aug-29 15:33N 47°32' W 122°20'3 3.3
2016-Aug-29 14:33N 47°36' W 122°22'1 0.1
2016-Aug-28 23:32N 47°34' W 122°21'1 1.3
2016-Aug-28 22:33N 47°35' W 122°21'0 0.1
2016-Aug-28 21:33N 47°35' W 122°21'0 0.0
2016-Aug-28 20:33N 47°35' W 122°21'0 0.0
2016-Aug-28 19:33N 47°35' W 122°21'3 3.1
2016-Aug-28 18:33N 47°32' W 122°20'3 3.5
2016-Aug-28 17:33N 47°36' W 122°22'2 0.1
2016-Aug-27 22:33N 47°33' W 122°21'3 3.1
2016-Aug-27 21:33N 47°36' W 122°23'2 0.1
2016-Aug-27 03:26N 47°34' W 122°21'1 1.1
2016-Aug-27 02:33N 47°33' W 122°20'1 0.8
2016-Aug-27 01:33N 47°34' W 122°21'1 1.4
2016-Aug-27 00:34N 47°33' W 122°20'4 3.6
2016-Aug-26 23:33N 47°36' W 122°21'1 0.7
2016-Aug-26 22:34N 47°36' W 122°21'1 0.5
2016-Aug-26 21:33N 47°35' W 122°21'1 0.7
2016-Aug-26 20:33N 47°34' W 122°21'1 0.6
2016-Aug-26 19:34N 47°35' W 122°21'1 0.0
2016-Aug-25 23:12N 47°34' W 122°21'0 0.3
2016-Aug-25 22:33N 47°34' W 122°21'1 0.6
2016-Aug-25 21:33N 47°34' W 122°21'0 0.4
2016-Aug-25 20:33N 47°35' W 122°22'2 2.0
2016-Aug-25 19:33N 47°33' W 122°20'2 2.3
2016-Aug-25 18:34N 47°35' W 122°21'2 1.9
2016-Aug-25 17:33N 47°33' W 122°21'2 2.3
2016-Aug-25 16:33N 47°36' W 122°21'2 2.2
2016-Aug-25 15:33N 47°33' W 122°21'1 1.4
2016-Aug-25 14:33N 47°35' W 122°22'0 0.1
2016-Aug-25 13:33N 47°35' W 122°22'1 0.1
2016-Aug-25 06:25N 47°34' W 122°21'0 0.0
2016-Aug-25 04:33N 47°34' W 122°21'0 0.0
2016-Aug-25 03:33N 47°34' W 122°21'0 0.0
2016-Aug-25 02:34N 47°34' W 122°21'1 1.0
2016-Aug-25 01:33N 47°33' W 122°21'0 0.1
2016-Aug-25 00:33N 47°33' W 122°21'1 0.9
2016-Aug-24 23:34N 47°34' W 122°21'0 0.0
2016-Aug-24 22:34N 47°34' W 122°21'0 0.0
2016-Aug-24 21:34N 47°34' W 122°21'1 0.7
2016-Aug-24 20:33N 47°35' W 122°22'1 1.4
2016-Aug-24 19:33N 47°33' W 122°21'1 0.8
2016-Aug-24 18:34N 47°34' W 122°21'1 0.2
2016-Aug-24 15:33N 47°34' W 122°21'1 1.0
2016-Aug-24 14:33N 47°34' W 122°21'1 0.5
2016-Aug-24 13:33N 47°34' W 122°21'0 0.0
2016-Aug-24 02:33N 47°34' W 122°21'2 1.6
2016-Aug-24 01:34N 47°36' W 122°22'0 0.4
2016-Aug-24 00:33N 47°35' W 122°22'0 0.3
2016-Aug-23 23:33N 47°35' W 122°22'0 0.0
2016-Aug-23 22:33N 47°35' W 122°22'1 0.9
2016-Aug-23 21:34N 47°34' W 122°21'0 0.2
2016-Aug-23 20:33N 47°34' W 122°21'1 1.1
2016-Aug-23 19:33N 47°35' W 122°22'1 1.4
2016-Aug-23 18:33N 47°34' W 122°21'0 0.0
2016-Aug-23 17:34N 47°34' W 122°21'0 0.0
2016-Aug-23 04:33N 47°34' W 122°21'0 0.0
2016-Aug-22 23:09N 47°34' W 122°21'1 2.0
2016-Aug-22 22:33N 47°35' W 122°21'1 0.2
2016-Aug-22 14:33N 47°34' W 122°21'0 0.3
2016-Aug-22 13:33N 47°34' W 122°21'0 0.0
2016-Aug-22 01:13N 47°34' W 122°21'0 0.6
2016-Aug-22 00:33N 47°34' W 122°21'0 0.5
2016-Aug-21 23:34N 47°34' W 122°21'0 0.2
2016-Aug-21 22:34N 47°34' W 122°21'0 0.0
2016-Aug-21 21:34N 47°34' W 122°21'1 0.8
2016-Aug-21 20:34N 47°35' W 122°22'1 0.8
2016-Aug-21 19:33N 47°35' W 122°22'2 2.4
2016-Aug-21 18:34N 47°33' W 122°21'0 0.0
2016-Aug-21 07:33N 47°33' W 122°21'1 0.1
2016-Aug-20 20:21N 47°34' W 122°21'1 1.0
2016-Aug-20 19:33N 47°33' W 122°21'1 0.8
2016-Aug-20 18:33N 47°34' W 122°21'0 0.0
2016-Aug-20 17:33N 47°34' W 122°21'2 1.8
2016-Aug-20 16:33N 47°32' W 122°20'1 0.5
2016-Aug-20 15:33N 47°33' W 122°20'0 0.4
2016-Aug-20 14:33N 47°33' W 122°21'1 0.1
2016-Aug-20 02:05N 47°34' W 122°21'0 0.4
2016-Aug-20 01:33N 47°34' W 122°21'2 2.1
2016-Aug-20 00:33N 47°36' W 122°23'2 2.2
2016-Aug-19 23:33N 47°34' W 122°21'0 0.0
2016-Aug-19 22:33N 47°34' W 122°21'  

Dump ship's entire track history